모두
Willow Point Airport (Our Town, AL) AL71 기상
There is no TAF data available at AL71 or any nearby airports.
There is no METAR data available at AL71. Showing METAR data for KALX (8 mi 북).
최근 ALX METAR 이력(AL71에 대한 데이터 없음)
| Date | Time (CDT) | Flight Rules | Wind Dir. | Speed | Type | Height AGL (ft) | Visibility | Temp (°C) | Temp (°F) | Dew Point (°C) | Dew Point (°F) | Rel. Humid. | Pressure | Density Altitude | Remarks |
|---|---|---|---|---|---|---|---|---|---|---|---|---|---|---|---|
| 04-9월 | 19:56 | VFR | 290° | 1 kt | 10 miles | 29° | 84° | 23° | 73° | 70% | 29.96 in Hg | 2,325 ft | |||
| 04-9월 | 19:15 | VFR | 100° | 2 kt | 10 miles | 30° | 86° | 22° | 71° | 62% | 29.96 in Hg | 2,445 ft | |||
| 04-9월 | 18:55 | VFR | 120° | 2 kt | 10 miles | 33° | 91° | 22° | 71° | 53% | 29.95 in Hg | 2,815 ft | |||
| 04-9월 | 18:35 | VFR | 120° | 4 kt | 10 miles | 34° | 93° | 21° | 69° | 47% | 29.95 in Hg | 2,935 ft | |||
| 04-9월 | 18:15 | VFR | 110° | 6 kt | 10 miles | 34° | 93° | 22° | 71° | 50% | 29.95 in Hg | 2,935 ft | |||
| 04-9월 | 17:55 | VFR | Variable | 3 kt | 10 miles | 35° | 95° | 21° | 69° | 44% | 29.94 in Hg | 3,065 ft | |||
| 04-9월 | 17:15 | VFR | 70° | 5 kt | 10 miles | 35° | 95° | 21° | 69° | 44% | 29.94 in Hg | 3,065 ft | |||
| 04-9월 | 16:55 | VFR | 90° | 9 kt | 10 miles | 35° | 95° | 20° | 68° | 42% | 29.94 in Hg | 3,065 ft | |||
| 04-9월 | 16:15 | VFR | 100° | 8 kt | 10 miles | 35° | 95° | 20° | 68° | 42% | 29.95 in Hg | 3,055 ft | |||
| 04-9월 | 15:55 | VFR | 70° | 7 kt | 10 miles | 35° | 95° | 21° | 69° | 44% | 29.95 in Hg | 3,055 ft | |||
| 04-9월 | 15:15 | VFR | Variable | 5 kt | 10 miles | 35° | 95° | 21° | 69° | 44% | 29.96 in Hg | 3,045 ft | |||
| 04-9월 | 14:55 | VFR | Variable | 5 kt | 10 miles | 35° | 95° | 20° | 68° | 42% | 29.97 in Hg | 3,035 ft | |||
| 04-9월 | 14:15 | VFR | 60° | 8 kt | 10 miles | 35° | 95° | 21° | 69° | 44% | 29.98 in Hg | 3,025 ft | |||
| 04-9월 | 13:55 | VFR | Variable | 4 kt | 10 miles | 34° | 93° | 22° | 71° | 50% | 29.99 in Hg | 2,895 ft | |||
| 04-9월 | 13:35 | VFR | 70° | 8 kt | 10 miles | 34° | 93° | 22° | 71° | 50% | 30.00 in Hg | 2,885 ft | |||
| 04-9월 | 13:15 | VFR | 70° | 6 kt | 10 miles | 34° | 93° | 22° | 71° | 50% | 30.01 in Hg | 2,875 ft | |||
| 04-9월 | 12:55 | VFR | 50° | 8 kt | 10 miles | 34° | 93° | 22° | 71° | 50% | 30.02 in Hg | 2,865 ft | |||
| 04-9월 | 12:15 | VFR | Variable | 6 kt | 10 miles | 33° | 91° | 22° | 71° | 53% | 30.04 in Hg | 2,725 ft | |||
| 04-9월 | 11:55 | VFR | 100° | 8 kt | 10 miles | 33° | 91° | 22° | 71° | 53% | 30.04 in Hg | 2,725 ft | |||
| 04-9월 | 11:35 | VFR | 70° | 7 kt | 10 miles | 33° | 91° | 23° | 73° | 56% | 30.05 in Hg | 2,715 ft | |||
| 04-9월 | 11:15 | VFR | Variable | 6 kt | 10 miles | 32° | 89° | 23° | 73° | 59% | 30.05 in Hg | 2,595 ft | |||
| 04-9월 | 10:56 | VFR | Variable | 5 kt | 10 miles | 32° | 89° | 23° | 73° | 59% | 30.05 in Hg | 2,595 ft | |||
| 04-9월 | 10:35 | VFR | Variable | 3 kt | 10 miles | 31° | 87° | 24° | 75° | 66% | 30.05 in Hg | 2,475 ft | |||
| 04-9월 | 10:15 | VFR | Variable | 4 kt | 10 miles | 31° | 87° | 24° | 75° | 66% | 30.05 in Hg | 2,475 ft |
로그인
| 귀하의 브라우저는 지원되지 않습니다.. 브라우저를 업그레이드하세요 |
